Time;durP1;ratioP1;P1;durP2;ratioP2;P2;SDS_P1;SDS_P2;PMS_P1;PMS_P2;Temp;Humidity;BMP_temperature;BMP_pressure;BME280_temperature;BME280_humidity;BME280_pressure;Samples;Min_cycle;Max_cycle;Signal;HPM_P1;HPM_P2
2023/12/02 00:01:34;;;;;;;25.95;10.60;;;;;;;-1.40;100.00;101199.75;7399104;19;19926;-79
2023/12/02 00:04:05;;;;;;;26.75;11.75;;;;;;;-1.39;100.00;101199.66;7397755;19;19922;-79
2023/12/02 00:06:34;;;;;;;27.48;12.02;;;;;;;-1.40;100.00;101197.97;7399976;19;19919;-80
2023/12/02 00:09:02;;;;;;;22.83;11.27;;;;;;;-1.43;100.00;101198.16;7399414;19;19927;-78
2023/12/02 00:11:31;;;;;;;21.15;11.05;;;;;;;-1.43;100.00;101192.88;7398653;19;19925;-79
2023/12/02 00:14:00;;;;;;;23.42;11.85;;;;;;;-1.36;100.00;101195.97;7399782;19;19914;-79
2023/12/02 00:16:28;;;;;;;27.38;11.98;;;;;;;-1.32;100.00;101200.13;7397715;19;19927;-79
2023/12/02 00:18:57;;;;;;;26.65;11.20;;;;;;;-1.30;100.00;101190.34;7399459;19;19923;-79
2023/12/02 00:21:28;;;;;;;22.67;10.57;;;;;;;-1.28;100.00;101195.50;7398953;19;20369;-79
2023/12/02 00:23:57;;;;;;;27.13;11.27;;;;;;;-1.28;100.00;101201.63;7396680;19;19922;-78
2023/12/02 00:26:26;;;;;;;26.60;11.70;;;;;;;-1.27;100.00;101194.56;7399452;19;19947;-79
2023/12/02 00:28:55;;;;;;;22.30;10.48;;;;;;;-1.27;100.00;101200.72;7398552;19;19946;-78
2023/12/02 00:31:23;;;;;;;26.88;12.13;;;;;;;-1.26;100.00;101189.19;7399436;19;19946;-79
2023/12/02 00:33:52;;;;;;;28.20;12.50;;;;;;;-1.29;100.00;101189.38;7397868;19;19927;-78
2023/12/02 00:36:21;;;;;;;23.58;11.32;;;;;;;-1.29;100.00;101188.53;7399576;19;19942;-79
2023/12/02 00:38:52;;;;;;;30.35;12.48;;;;;;;-1.30;100.00;101184.19;7397809;19;19945;-79
2023/12/02 00:41:21;;;;;;;24.73;10.65;;;;;;;-1.28;100.00;101183.13;7398772;19;20279;-79
2023/12/02 00:43:50;;;;;;;28.05;12.43;;;;;;;-1.29;100.00;101181.44;7396809;19;19942;-79
2023/12/02 00:46:19;;;;;;;24.48;11.48;;;;;;;-1.31;100.00;101187.78;7399641;19;19919;-79
2023/12/02 00:48:47;;;;;;;25.95;12.45;;;;;;;-1.33;100.00;101189.66;7398005;19;19930;-77
2023/12/02 00:51:16;;;;;;;27.50;11.73;;;;;;;-1.35;100.00;101180.97;7398812;19;19999;-79
2023/12/02 00:53:45;;;;;;;24.20;10.95;;;;;;;-1.32;100.00;101173.69;7397682;19;20276;-79
2023/12/02 00:56:16;;;;;;;26.02;11.25;;;;;;;-1.30;100.00;101173.63;7399444;19;20267;-79
2023/12/02 00:58:45;;;;;;;27.88;12.45;;;;;;;-1.30;100.00;101165.69;7399163;19;20011;-78
2023/12/02 01:01:14;;;;;;;26.42;11.75;;;;;;;-1.29;100.00;101170.03;7400401;19;19925;-79
2023/12/02 01:03:43;;;;;;;25.50;11.82;;;;;;;-1.27;100.00;101170.78;7400578;19;19919;-79
2023/12/02 01:06:12;;;;;;;27.33;11.60;;;;;;;-1.24;100.00;101162.66;7398682;19;19918;-80
2023/12/02 01:08:41;;;;;;;24.88;11.70;;;;;;;-1.23;100.00;101167.00;7398841;19;20278;-81
2023/12/02 01:11:10;;;;;;;26.92;11.63;;;;;;;-1.25;100.00;101159.16;7397683;19;19989;-80
2023/12/02 01:13:41;;;;;;;28.85;12.35;;;;;;;-1.23;100.00;101162.56;7398405;19;20002;-80
2023/12/02 01:16:11;;;;;;;26.52;11.88;;;;;;;-1.23;100.00;101164.38;7397472;19;19919;-80
2023/12/02 01:18:40;;;;;;;26.02;12.38;;;;;;;-1.21;100.00;101167.78;7397250;19;19914;-80
2023/12/02 01:21:09;;;;;;;26.15;12.02;;;;;;;-1.20;100.00;101165.00;7397566;19;20369;-80
2023/12/02 01:23:38;;;;;;;27.98;11.43;;;;;;;-1.19;100.00;101168.50;7397779;19;20348;-80
2023/12/02 01:26:08;;;;;;;25.85;12.52;;;;;;;-1.18;100.00;101173.72;7396607;19;19926;-79
2023/12/02 01:28:36;;;;;;;27.50;11.90;;;;;;;-1.19;100.00;101172.00;7398917;19;19934;-80
2023/12/02 01:31:08;;;;;;;28.27;12.20;;;;;;;-1.19;100.00;101176.44;7397050;19;20244;-80
2023/12/02 01:33:37;;;;;;;25.05;11.88;;;;;;;-1.19;100.00;101171.16;7397975;19;19922;-81
2023/12/02 01:36:06;;;;;;;25.08;11.65;;;;;;;-1.18;100.00;101178.16;7398093;19;19919;-80
2023/12/02 01:38:35;;;;;;;26.65;12.93;;;;;;;-1.20;100.00;101183.50;7397834;19;19950;-80
2023/12/02 01:41:04;;;;;;;23.80;11.43;;;;;;;-1.22;100.00;101179.28;7398837;19;19942;-77
2023/12/02 01:43:33;;;;;;;25.55;12.13;;;;;;;-1.24;100.00;101179.38;7398632;19;20795;-78
2023/12/02 01:46:02;;;;;;;27.35;12.45;;;;;;;-1.22;100.00;101177.50;7397883;19;19918;-77
2023/12/02 01:48:37;;;;;;;22.15;10.88;;;;;;;-1.19;100.00;101182.59;7396001;19;19923;-80
2023/12/02 01:51:07;;;;;;;27.30;11.88;;;;;;;-1.15;100.00;101177.94;7398280;19;19914;-80
2023/12/02 01:53:36;;;;;;;24.00;10.60;;;;;;;-1.15;100.00;101177.94;7396368;19;19919;-79
2023/12/02 01:56:05;;;;;;;20.73;10.48;;;;;;;-1.16;100.00;101176.25;7400397;19;20226;-80
2023/12/02 01:58:34;;;;;;;23.92;10.18;;;;;;;-1.17;100.00;101180.72;7401585;19;19933;-79
2023/12/02 02:01:06;;;;;;;20.73;9.73;;;;;;;-1.17;100.00;101171.94;7400927;19;19919;-80
2023/12/02 02:03:38;;;;;;;22.33;9.85;;;;;;;-1.16;100.00;101179.75;7399635;19;19943;-80
2023/12/02 02:06:10;;;;;;;21.30;10.40;;;;;;;-1.13;100.00;101181.38;7400260;19;19929;-80
2023/12/02 02:08:39;;;;;;;28.98;11.05;;;;;;;-1.14;100.00;101180.50;7401267;19;19961;-79
2023/12/02 02:11:08;;;;;;;22.35;11.05;;;;;;;-1.12;100.00;101175.97;7401478;19;19922;-80
2023/12/02 02:13:37;;;;;;;20.45;9.88;;;;;;;-1.09;100.00;101177.59;7401990;19;20567;-77
2023/12/02 02:16:07;;;;;;;21.67;10.43;;;;;;;-1.08;100.00;101174.00;7400390;19;19926;-77
2023/12/02 02:18:41;;;;;;;20.38;10.15;;;;;;;-1.06;100.00;101180.88;7401834;19;19918;-77
2023/12/02 02:21:10;;;;;;;23.02;11.20;;;;;;;-1.06;100.00;101170.31;7399385;19;19962;-77
2023/12/02 02:23:42;;;;;;;19.55;10.88;;;;;;;-1.05;100.00;101176.44;7400820;19;19940;-77
2023/12/02 02:26:11;;;;;;;21.25;10.68;;;;;;;-1.05;100.00;101176.44;7400628;19;20219;-77
2023/12/02 02:28:39;;;;;;;22.23;10.10;;;;;;;-1.05;100.00;101173.81;7403605;19;19942;-78
2023/12/02 02:31:09;;;;;;;23.17;10.63;;;;;;;-1.05;100.00;101179.09;7399871;19;19926;-79
2023/12/02 02:33:57;;;;;;;23.00;9.90;;;;;;;-1.03;100.00;101171.91;7394668;19;19922;-78
2023/12/02 02:36:26;;;;;;;21.48;10.50;;;;;;;-1.02;100.00;101176.25;7401743;19;19915;-78
2023/12/02 02:38:57;;;;;;;22.20;10.57;;;;;;;-1.03;100.00;101174.53;7399170;19;19915;-79
2023/12/02 02:41:26;;;;;;;22.80;10.38;;;;;;;-1.01;100.00;101168.22;7400467;19;19927;-78
2023/12/02 02:43:55;;;;;;;22.25;9.85;;;;;;;-0.98;100.00;101181.25;7400878;19;20337;-78
2023/12/02 02:46:24;;;;;;;22.55;9.63;;;;;;;-0.98;100.00;101173.31;7399978;19;20455;-78
2023/12/02 02:48:53;;;;;;;23.20;10.15;;;;;;;-0.98;100.00;101172.47;7401093;19;20283;-78
2023/12/02 02:51:22;;;;;;;19.85;9.45;;;;;;;-0.96;100.00;101176.72;7400700;19;19922;-78
2023/12/02 02:53:51;;;;;;;23.15;10.43;;;;;;;-0.99;100.00;101176.91;7398659;19;19919;-79
2023/12/02 02:56:22;;;;;;;20.83;11.02;;;;;;;-0.99;100.00;101179.53;7400711;19;20490;-79
2023/12/02 02:58:51;;;;;;;26.30;11.48;;;;;;;-1.00;100.00;101177.88;7400242;19;19919;-78
2023/12/02 03:01:20;;;;;;;23.65;10.82;;;;;;;-1.01;100.00;101176.16;7401158;19;19914;-78
2023/12/02 03:03:48;;;;;;;24.70;10.73;;;;;;;-1.01;100.00;101173.50;7401594;19;19946;-78
2023/12/02 03:06:18;;;;;;;21.40;9.90;;;;;;;-1.01;100.00;101170.88;7400172;19;20412;-78
2023/12/02 03:08:47;;;;;;;23.08;10.40;;;;;;;-1.01;100.00;101176.16;7398240;19;19990;-78
2023/12/02 03:11:15;;;;;;;23.50;9.57;;;;;;;-1.01;100.00;101170.88;7402038;19;20595;-78
2023/12/02 03:13:46;;;;;;;23.95;10.75;;;;;;;-1.00;100.00;101164.66;7398471;19;19930;-78
2023/12/02 03:16:35;;;;;;;28.38;12.07;;;;;;;-1.01;100.00;101164.72;7398819;19;19915;-78
2023/12/02 03:19:04;;;;;;;22.55;11.20;;;;;;;-1.01;100.00;101162.94;7399368;19;20028;-78
2023/12/02 03:21:32;;;;;;;23.10;10.77;;;;;;;-1.03;100.00;101156.88;7400061;19;20390;-78
2023/12/02 03:24:01;;;;;;;26.98;11.40;;;;;;;-1.03;100.00;101164.81;7399685;19;19926;-78
2023/12/02 03:26:29;;;;;;;23.58;10.55;;;;;;;-1.03;100.00;101161.31;7400547;19;19925;-78
2023/12/02 03:29:01;;;;;;;21.95;10.35;;;;;;;-1.00;100.00;101162.00;7399008;19;19927;-78
2023/12/02 03:31:29;;;;;;;23.40;11.63;;;;;;;-1.00;100.00;101155.84;7399850;19;19922;-78
2023/12/02 03:33:58;;;;;;;26.95;12.23;;;;;;;-1.00;100.00;101169.94;7399554;19;19946;-79
2023/12/02 03:36:27;;;;;;;22.58;10.27;;;;;;;-1.01;100.00;101168.22;7398581;19;20257;-79
2023/12/02 03:38:55;;;;;;;25.55;11.73;;;;;;;-1.01;100.00;101167.38;7399397;19;19942;-78
2023/12/02 03:41:24;;;;;;;26.30;11.75;;;;;;;-1.02;100.00;101157.72;7397879;19;20395;-78
2023/12/02 03:43:52;;;;;;;22.63;10.40;;;;;;;-1.03;100.00;101159.53;7400502;19;19918;-78
2023/12/02 03:46:24;;;;;;;22.60;11.45;;;;;;;-1.01;100.00;101155.00;7398532;19;19939;-78
2023/12/02 03:48:52;;;;;;;20.45;10.63;;;;;;;-1.04;100.00;101155.22;7399407;19;20357;-79
2023/12/02 03:51:21;;;;;;;22.98;11.02;;;;;;;-1.03;100.00;101154.25;7398846;19;20340;-78
2023/12/02 03:53:50;;;;;;;18.05;9.00;;;;;;;-1.02;100.00;101158.59;7399075;19;19946;-78
2023/12/02 03:56:18;;;;;;;23.25;11.07;;;;;;;-1.04;100.00;101157.00;7398148;19;20282;-78
2023/12/02 03:58:48;;;;;;;25.13;11.50;;;;;;;-1.04;100.00;101160.50;7398827;19;19926;-78
2023/12/02 04:01:17;;;;;;;21.70;10.52;;;;;;;-1.03;100.00;101161.31;7397819;19;20248;-78
2023/12/02 04:03:48;;;;;;;23.60;10.45;;;;;;;-1.05;100.00;101156.16;7398709;19;19918;-79
2023/12/02 04:06:18;;;;;;;26.38;11.13;;;;;;;-1.02;100.00;101160.38;7398374;19;19925;-78
2023/12/02 04:08:46;;;;;;;27.77;11.23;;;;;;;-1.01;100.00;101168.22;7399647;19;19923;-78
2023/12/02 04:11:15;;;;;;;32.95;11.00;;;;;;;-0.99;100.00;101165.47;7398130;19;19923;-79
2023/12/02 04:13:43;;;;;;;23.35;10.75;;;;;;;-0.98;100.00;101168.03;7398275;19;20376;-78
2023/12/02 04:16:13;;;;;;;27.17;11.25;;;;;;;-0.98;100.00;101168.03;7398811;19;19947;-78
2023/12/02 04:18:41;;;;;;;22.75;10.48;;;;;;;-0.97;100.00;101174.16;7396960;19;19922;-78
2023/12/02 04:21:12;;;;;;;21.70;10.85;;;;;;;-0.97;100.00;101171.53;7398949;19;20285;-78
2023/12/02 04:23:41;;;;;;;23.23;11.40;;;;;;;-1.00;100.00;101174.38;7397489;19;19922;-78
2023/12/02 04:26:10;;;;;;;22.73;10.18;;;;;;;-1.00;100.00;101180.50;7399350;19;19933;-78
2023/12/02 04:28:39;;;;;;;21.65;10.40;;;;;;;-1.01;100.00;101175.31;7396849;19;19922;-78
2023/12/02 04:31:08;;;;;;;19.88;10.30;;;;;;;-1.01;100.00;101177.94;7398693;19;19927;-78
2023/12/02 04:33:36;;;;;;;19.33;9.68;;;;;;;-1.01;100.00;101183.25;7397889;19;20257;-78
2023/12/02 04:36:08;;;;;;;24.42;10.20;;;;;;;-1.02;100.00;101190.31;7399844;19;19918;-78
2023/12/02 04:38:39;;;;;;;20.63;9.95;;;;;;;-1.04;100.00;101192.22;7396358;19;19918;-79
2023/12/02 04:41:08;;;;;;;22.65;9.82;;;;;;;-1.05;100.00;101187.88;7398675;19;20260;-78
2023/12/02 04:43:37;;;;;;;21.83;10.65;;;;;;;-1.05;100.00;101187.88;7398758;19;20476;-78
2023/12/02 04:46:08;;;;;;;21.52;10.60;;;;;;;-1.02;100.00;101192.97;7398482;19;19926;-78
2023/12/02 04:48:37;;;;;;;21.95;10.20;;;;;;;-1.02;100.00;101192.97;7397442;19;19930;-78
2023/12/02 04:51:06;;;;;;;21.98;10.55;;;;;;;-1.02;100.00;101200.03;7397479;19;19915;-78
2023/12/02 04:53:34;;;;;;;20.08;9.48;;;;;;;-1.02;100.00;101197.41;7398657;19;19926;-77
2023/12/02 04:56:06;;;;;;;21.77;10.73;;;;;;;-1.02;100.00;101203.53;7395955;19;19922;-78
2023/12/02 04:58:35;;;;;;;21.23;11.20;;;;;;;-1.04;100.00;101188.72;7398275;19;19943;-77
2023/12/02 05:01:04;;;;;;;23.08;10.82;;;;;;;-1.05;100.00;101195.81;7396037;19;19918;-77
2023/12/02 05:03:32;;;;;;;21.40;9.15;;;;;;;-1.07;100.00;101192.38;7398450;19;19979;-78
2023/12/02 05:06:01;;;;;;;22.75;10.68;;;;;;;-1.08;100.00;101198.63;7394659;19;19922;-78
2023/12/02 05:08:30;;;;;;;22.95;11.15;;;;;;;-1.08;100.00;101193.31;7396706;19;19923;-78
2023/12/02 05:10:59;;;;;;;23.05;10.10;;;;;;;-1.08;100.00;101195.97;7396885;19;20355;-78
2023/12/02 05:13:31;;;;;;;17.77;8.57;;;;;;;-1.08;100.00;101195.97;7397309;19;19928;-78
2023/12/02 05:15:59;;;;;;;21.75;10.07;;;;;;;-1.08;100.00;101197.78;7398566;19;19938;-78
2023/12/02 05:18:28;;;;;;;20.27;9.77;;;;;;;-1.08;100.00;101197.78;7396475;19;20360;-80
2023/12/02 05:20:57;;;;;;;17.38;8.50;;;;;;;-1.08;100.00;101205.72;7397076;19;19926;-79
2023/12/02 05:23:25;;;;;;;18.88;9.73;;;;;;;-1.08;100.00;101203.91;7396616;19;19922;-79
2023/12/02 05:25:54;;;;;;;20.00;9.32;;;;;;;-1.08;100.00;101203.09;7397479;19;19946;-79
2023/12/02 05:28:23;;;;;;;23.63;11.20;;;;;;;-1.08;100.00;101203.91;7395920;19;20356;-78
2023/12/02 05:30:55;;;;;;;20.17;9.23;;;;;;;-1.07;100.00;101205.59;7397404;19;19925;-79
2023/12/02 05:33:24;;;;;;;20.08;10.30;;;;;;;-1.09;100.00;101202.22;7395579;19;19926;-79
2023/12/02 05:36:14;;;;;;;22.05;9.68;;;;;;;-1.08;100.00;101200.44;7395731;19;19915;-79
2023/12/02 05:38:42;;;;;;;20.55;9.23;;;;;;;-1.10;100.00;101200.53;7395189;19;19915;-79
2023/12/02 05:41:11;;;;;;;18.77;10.10;;;;;;;-1.11;100.00;101213.81;7396550;19;19947;-78
2023/12/02 05:44:00;;;;;;;18.65;9.82;;;;;;;-1.15;100.00;101199.09;7395519;19;20243;-79
2023/12/02 05:46:31;;;;;;;20.80;10.18;;;;;;;-1.16;100.00;101195.59;7394909;19;19906;-79
2023/12/02 05:48:59;;;;;;;20.08;9.63;;;;;;;-1.15;100.00;101196.44;7396877;19;19919;-78
2023/12/02 05:51:28;;;;;;;23.42;9.98;;;;;;;-1.15;100.00;101201.75;7395561;19;19933;-79
2023/12/02 05:53:58;;;;;;;19.05;9.45;;;;;;;-1.14;100.00;101196.38;7396929;19;19918;-79
2023/12/02 05:56:27;;;;;;;22.63;11.02;;;;;;;-1.16;100.00;101203.53;7394940;19;19923;-80
2023/12/02 05:58:56;;;;;;;22.33;9.63;;;;;;;-1.15;100.00;101209.66;7394899;19;20574;-78
2023/12/02 06:01:24;;;;;;;19.65;9.27;;;;;;;-1.16;100.00;101206.19;7394526;19;19923;-79
2023/12/02 06:03:56;;;;;;;19.08;9.23;;;;;;;-1.16;100.00;101219.38;7394911;19;19963;-79
2023/12/02 06:06:24;;;;;;;17.52;9.43;;;;;;;-1.16;100.00;101219.38;7395328;19;19919;-79
2023/12/02 06:08:54;;;;;;;21.38;10.32;;;;;;;-1.17;100.00;101220.34;7394837;19;20443;-79
2023/12/02 06:11:22;;;;;;;16.40;9.02;;;;;;;-1.17;100.00;101216.88;7396138;19;19951;-79
2023/12/02 06:13:51;;;;;;;21.48;9.50;;;;;;;-1.17;100.00;101215.06;7394460;19;19922;-79
2023/12/02 06:16:20;;;;;;;23.08;10.70;;;;;;;-1.17;100.00;101220.34;7395732;19;19921;-78
2023/12/02 06:18:48;;;;;;;24.02;10.35;;;;;;;-1.16;100.00;101221.19;7394092;19;19938;-79
2023/12/02 06:21:20;;;;;;;21.10;11.32;;;;;;;-1.16;100.00;101226.47;7394665;19;19922;-77
2023/12/02 06:23:48;;;;;;;21.67;9.80;;;;;;;-1.17;100.00;101228.28;7394375;19;19929;-78
2023/12/02 06:26:18;;;;;;;19.90;10.43;;;;;;;-1.19;100.00;101226.66;7395483;19;19950;-79
2023/12/02 06:28:49;;;;;;;20.38;9.48;;;;;;;-1.19;100.00;101230.16;7393968;19;19923;-79
2023/12/02 06:31:18;;;;;;;22.67;10.20;;;;;;;-1.16;100.00;101234.41;7395326;19;19918;-80
2023/12/02 06:33:47;;;;;;;20.40;10.02;;;;;;;-1.12;100.00;101228.00;7393898;19;19939;-79
2023/12/02 06:36:15;;;;;;;24.58;10.95;;;;;;;-1.10;100.00;101220.81;7395469;19;19922;-79
2023/12/02 06:38:46;;;;;;;21.42;10.18;;;;;;;-1.09;100.00;101225.16;7393796;19;19923;-79
2023/12/02 06:41:15;;;;;;;22.73;10.48;;;;;;;-1.08;100.00;101229.53;7395363;19;19923;-79
2023/12/02 06:43:44;;;;;;;18.42;10.02;;;;;;;-1.09;100.00;101223.38;7400034;19;19922;-79
2023/12/02 06:46:22;;;;;;;19.63;11.05;;;;;;;-1.10;100.00;101228.75;7399454;19;20344;-79
2023/12/02 06:48:50;;;;;;;20.98;10.05;;;;;;;-1.10;100.00;101237.53;7401076;19;19922;-79
2023/12/02 06:51:21;;;;;;;21.40;10.88;;;;;;;-1.10;100.00;101240.19;7400392;19;19919;-78
2023/12/02 06:53:52;;;;;;;22.23;10.38;;;;;;;-1.11;100.00;101240.25;7399967;19;19974;-78
2023/12/02 06:56:22;;;;;;;21.70;10.00;;;;;;;-1.12;100.00;101242.03;7398168;19;19918;-79
2023/12/02 06:58:51;;;;;;;20.13;10.48;;;;;;;-1.12;100.00;101249.97;7402095;19;19919;-78
2023/12/02 07:01:28;;;;;;;20.77;10.48;;;;;;;-1.11;100.00;101250.84;7399971;19;19939;-80
2023/12/02 07:03:56;;;;;;;19.85;9.43;;;;;;;-1.12;100.00;101255.25;7398906;19;20335;-79
2023/12/02 07:06:45;;;;;;;18.48;9.68;;;;;;;-1.13;100.00;101256.22;7398782;19;19944;-78
2023/12/02 07:09:18;;;;;;;20.45;9.13;;;;;;;-1.16;100.00;101266.97;7398844;19;19918;-78
2023/12/02 07:11:46;;;;;;;23.10;10.90;;;;;;;-1.15;100.00;101273.97;7398550;19;19922;-78
2023/12/02 07:14:15;;;;;;;22.52;11.10;;;;;;;-1.15;100.00;101276.59;7399833;19;19927;-78
2023/12/02 07:16:44;;;;;;;22.10;10.30;;;;;;;-1.13;100.00;101279.16;7400491;19;19918;-78
2023/12/02 07:19:12;;;;;;;19.55;8.98;;;;;;;-1.14;100.00;101275.66;7400008;19;19939;-79
2023/12/02 07:22:01;;;;;;;19.23;10.00;;;;;;;-1.15;100.00;101278.41;7397527;19;20573;-78
2023/12/02 07:24:32;;;;;;;21.05;9.05;;;;;;;-1.13;100.00;101279.16;7399802;19;19947;-78
2023/12/02 07:27:01;;;;;;;23.20;11.13;;;;;;;-1.15;100.00;101283.69;7399359;19;19922;-79
2023/12/02 07:29:29;;;;;;;18.98;9.10;;;;;;;-1.17;100.00;101283.78;7398064;19;19946;-78
2023/12/02 07:31:58;;;;;;;19.58;10.32;;;;;;;-1.16;100.00;101287.25;7398190;19;19962;-78
2023/12/02 07:34:27;;;;;;;21.25;10.60;;;;;;;-1.19;100.00;101287.47;7398558;19;19958;-79
2023/12/02 07:36:55;;;;;;;20.25;10.40;;;;;;;-1.20;100.00;101286.59;7399458;19;19918;-78
2023/12/02 07:39:24;;;;;;;20.17;10.07;;;;;;;-1.21;100.00;101298.13;7398946;19;19919;-79
2023/12/02 07:41:55;;;;;;;17.35;9.65;;;;;;;-1.22;100.00;101299.06;7397992;19;20455;-78
2023/12/02 07:44:24;;;;;;;20.83;9.75;;;;;;;-1.20;100.00;101296.31;7400370;19;19923;-79
2023/12/02 07:46:53;;;;;;;21.67;10.48;;;;;;;-1.20;100.00;101302.47;7399624;19;19935;-79
2023/12/02 07:49:22;;;;;;;22.15;10.02;;;;;;;-1.24;100.00;101308.88;7399725;19;19923;-79
2023/12/02 07:51:50;;;;;;;20.67;10.18;;;;;;;-1.25;100.00;101316.91;7399640;19;20299;-79
2023/12/02 07:54:19;;;;;;;21.90;10.10;;;;;;;-1.31;100.00;101315.47;7396134;19;19915;-79
2023/12/02 07:56:47;;;;;;;20.33;9.70;;;;;;;-1.32;100.00;101311.13;7400304;19;19969;-79
2023/12/02 07:59:19;;;;;;;23.98;9.85;;;;;;;-1.30;100.00;101318.97;7398228;19;19918;-80
2023/12/02 08:01:47;;;;;;;21.67;10.18;;;;;;;-1.27;100.00;101318.78;7399062;19;19947;-78
2023/12/02 08:04:16;;;;;;;16.27;9.38;;;;;;;-1.26;100.00;101326.63;7399256;19;19914;-79
2023/12/02 08:06:44;;;;;;;19.52;10.05;;;;;;;-1.24;100.00;101327.38;7399513;19;19935;-78
2023/12/02 08:09:14;;;;;;;18.35;9.63;;;;;;;-1.23;100.00;101326.44;7397536;19;19954;-79
2023/12/02 08:11:44;;;;;;;19.20;10.25;;;;;;;-1.20;100.00;101330.69;7399607;19;19990;-79
2023/12/02 08:14:12;;;;;;;22.65;10.10;;;;;;;-1.16;100.00;101332.19;7398484;19;19911;-78
2023/12/02 08:16:44;;;;;;;18.35;9.52;;;;;;;-1.14;100.00;101343.53;7399820;19;19915;-78
2023/12/02 08:19:12;;;;;;;21.95;9.77;;;;;;;-1.15;100.00;101340.03;7396174;19;19922;-79
2023/12/02 08:21:41;;;;;;;21.27;10.35;;;;;;;-1.13;100.00;101334.69;7399703;19;19942;-78
2023/12/02 08:24:10;;;;;;;20.52;9.40;;;;;;;-1.12;100.00;101339.84;7396613;19;19918;-79
2023/12/02 08:26:38;;;;;;;23.67;10.77;;;;;;;-1.13;100.00;101337.31;7398303;19;19923;-78
2023/12/02 08:29:07;;;;;;;21.98;11.13;;;;;;;-1.15;100.00;101344.47;7398427;19;20404;-78
2023/12/02 08:31:35;;;;;;;17.85;9.55;;;;;;;-1.14;100.00;101344.41;7397292;19;20333;-79
2023/12/02 08:34:07;;;;;;;21.98;9.70;;;;;;;-1.12;100.00;101355.72;7398056;19;20355;-78
2023/12/02 08:36:35;;;;;;;22.15;10.75;;;;;;;-1.09;100.00;101357.34;7396751;19;19946;-79
2023/12/02 08:39:04;;;;;;;22.80;10.82;;;;;;;-1.07;100.00;101356.31;7397760;19;19935;-78
2023/12/02 08:41:33;;;;;;;21.77;9.75;;;;;;;-1.04;100.00;101361.44;7397726;19;19926;-78
2023/12/02 08:44:02;;;;;;;19.42;10.63;;;;;;;-1.02;100.00;101359.53;7398478;19;19994;-78
2023/12/02 08:46:31;;;;;;;16.90;8.85;;;;;;;-1.00;100.00;101359.44;7397236;19;19923;-78
2023/12/02 08:48:59;;;;;;;20.52;9.30;;;;;;;-0.97;100.00;101365.41;7398375;19;19947;-79
2023/12/02 08:51:30;;;;;;;18.65;8.93;;;;;;;-0.92;100.00;101363.34;7397343;19;21173;-79
2023/12/02 08:54:03;;;;;;;20.05;10.43;;;;;;;-0.89;100.00;101367.56;7398203;19;19918;-79
2023/12/02 08:56:32;;;;;;;19.15;9.27;;;;;;;-0.86;100.00;101363.91;7396649;19;20336;-78
2023/12/02 08:59:00;;;;;;;22.95;10.95;;;;;;;-0.84;100.00;101372.59;7397902;19;19915;-79
2023/12/02 09:01:27;;;;;;;22.98;10.63;;;;;;;-0.79;100.00;101370.53;7397648;19;19935;-79
2023/12/02 09:03:56;;;;;;;21.63;9.80;;;;;;;-0.75;100.00;101369.41;7396789;19;19923;-79
2023/12/02 09:06:25;;;;;;;19.63;9.15;;;;;;;-0.73;100.00;101370.13;7397235;19;19930;-79
2023/12/02 09:08:56;;;;;;;18.63;9.43;;;;;;;-0.71;100.00;101377.06;7395870;19;20383;-78
2023/12/02 09:11:25;;;;;;;17.85;9.32;;;;;;;-0.67;100.00;101370.63;7395277;19;20340;-79
2023/12/02 09:14:17;;;;;;;18.42;9.35;;;;;;;-0.65;100.00;101375.84;7394543;19;19922;-79
2023/12/02 09:16:50;;;;;;;19.05;10.20;;;;;;;-0.62;100.00;101376.50;7398251;19;19923;-79
2023/12/02 09:19:54;;;;;;;19.42;10.05;;;;;;;-0.60;100.00;101384.34;7398022;19;20241;-79
2023/12/02 09:22:51;;;;;;;19.10;9.93;;;;;;;-0.56;100.00;101385.88;7396711;19;19930;-78
2023/12/02 09:25:29;;;;;;;21.10;10.45;;;;;;;-0.51;100.00;101389.91;7395057;19;20282;-78
2023/12/02 09:28:18;;;;;;;;;;;;;;;-0.53;100.00;101388.31;7399535;19;19941;-78
2023/12/02 09:31:01;;;;;;;22.45;9.98;;;;;;;-0.49;100.00;101393.34;7395953;19;19919;-79
2023/12/02 09:33:30;;;;;;;19.88;9.57;;;;;;;-0.44;100.00;101398.34;7395343;19;19918;-79
2023/12/02 09:36:01;;;;;;;22.05;10.85;;;;;;;-0.41;100.00;101403.44;7396740;19;19927;-79
2023/12/02 09:38:30;;;;;;;21.80;10.88;;;;;;;-0.40;100.00;101399.88;7395427;19;19923;-79
2023/12/02 09:41:35;;;;;;;16.95;9.27;;;;;;;-0.39;100.00;101398.06;7397124;19;19923;-79
2023/12/02 09:44:21;;;;;;;18.17;8.98;;;;;;;-0.34;100.00;101402.13;7396674;19;19935;-79
2023/12/02 09:46:59;;;;;;;20.83;10.50;;;;;;;-0.31;100.00;101407.25;7395836;19;19989;-79
2023/12/02 09:49:55;;;;;;;24.40;12.50;;;;;;;-0.27;100.00;101405.25;7394830;19;19918;-79
2023/12/02 09:52:36;;;;;;;17.48;8.98;;;;;;;-0.25;100.00;101412.13;7397023;19;19939;-80
2023/12/02 09:55:12;;;;;;;20.05;10.10;;;;;;;-0.24;100.00;101410.34;7395214;19;19930;-79
2023/12/02 09:57:50;;;;;;;18.23;9.32;;;;;;;-0.28;100.00;101414.97;7395992;19;19914;-80
2023/12/02 10:00:27;;;;;;;22.20;9.95;;;;;;;-0.28;100.00;101411.47;7396748;19;20308;-81
2023/12/02 10:03:20;;;;;;;20.13;10.38;;;;;;;-0.27;100.00;101414.03;7394906;19;19922;-80
2023/12/02 10:06:02;;;;;;;18.17;9.10;;;;;;;-0.20;100.00;101417.16;7394511;19;20289;-80
2023/12/02 10:08:47;;;;;;;19.88;9.93;;;;;;;-0.17;100.00;101423.09;7395431;19;20312;-79
2023/12/02 10:11:25;;;;;;;18.98;10.27;;;;;;;-0.11;100.00;101419.22;7394543;19;19926;-80
2023/12/02 10:14:02;;;;;;;15.80;8.98;;;;;;;-0.05;100.00;101418.84;7394340;19;19929;-80
2023/12/02 10:16:33;;;;;;;19.98;9.80;;;;;;;-0.06;100.00;101415.34;7398711;19;20325;-79
2023/12/02 10:19:03;;;;;;;23.48;11.02;;;;;;;-0.07;100.00;101404.84;7400023;19;19915;-80
2023/12/02 10:21:34;;;;;;;22.15;10.35;;;;;;;-0.05;100.00;101405.63;7401675;19;19923;-79
2023/12/02 10:24:07;;;;;;;22.38;9.30;;;;;;;-0.03;100.00;101404.56;7400716;19;19932;-80
2023/12/02 10:26:42;;;;;;;20.70;10.15;;;;;;;0.01;100.00;101394.63;7400944;19;19933;-79
2023/12/02 10:29:19;;;;;;;19.48;9.40;;;;;;;0.03;100.00;101387.44;7400767;19;19926;-80
2023/12/02 10:32:00;;;;;;;22.38;9.95;;;;;;;0.09;100.00;101388.88;7400361;19;19923;-79
2023/12/02 10:34:35;;;;;;;19.58;9.68;;;;;;;0.12;100.00;101383.38;7400507;19;19922;-79
2023/12/02 10:37:06;;;;;;;21.30;9.63;;;;;;;0.14;100.00;101382.31;7398561;19;19914;-78
2023/12/02 10:39:43;;;;;;;20.17;10.25;;;;;;;0.18;100.00;101388.25;7401285;19;19919;-80
2023/12/02 10:42:18;;;;;;;18.45;9.27;;;;;;;0.20;100.00;101389.88;7400151;19;20287;-79
2023/12/02 10:44:53;;;;;;;17.95;9.20;;;;;;;0.18;100.00;101381.16;7398945;19;20272;-79
2023/12/02 10:47:22;;;;;;;19.98;9.65;;;;;;;0.21;100.00;101377.47;7400649;19;20265;-78
2023/12/02 10:49:52;;;;;;;22.85;11.07;;;;;;;0.32;100.00;101377.63;7399085;19;20606;-80
2023/12/02 10:52:23;;;;;;;23.00;10.65;;;;;;;0.45;100.00;101382.03;7400811;19;20354;-80
2023/12/02 10:54:54;;;;;;;23.45;10.65;;;;;;;0.58;100.00;101373.28;7399777;19;19930;-79
2023/12/02 10:57:25;;;;;;;19.05;9.93;;;;;;;0.72;100.00;101389.13;7400380;19;19939;-79
2023/12/02 11:00:09;;;;;;;16.60;8.52;;;;;;;0.82;99.60;101376.97;7398692;19;19918;-79
2023/12/02 11:02:44;;;;;;;19.45;10.07;;;;;;;0.91;99.42;101385.13;7398545;19;19914;-79
2023/12/02 11:05:21;;;;;;;20.75;10.38;;;;;;;0.95;99.18;101382.31;7400892;19;19943;-79
2023/12/02 11:07:54;;;;;;;21.73;10.35;;;;;;;1.03;99.23;101377.31;7399105;19;19919;-78
2023/12/02 11:10:27;;;;;;;;;;;;;;;1.05;97.92;101381.56;7401748;19;19923;-78
2023/12/02 11:13:01;;;;;;;22.02;9.90;;;;;;;1.15;97.96;101377.34;7399208;19;19923;-78
2023/12/02 11:15:52;;;;;;;22.63;10.18;;;;;;;1.21;97.89;101373.41;7400062;19;20264;-78
2023/12/02 11:18:33;;;;;;;18.65;10.05;;;;;;;1.28;97.50;101377.34;7399618;19;19919;-78
2023/12/02 11:21:06;;;;;;;23.02;10.95;;;;;;;1.32;97.19;101377.03;7400568;19;20076;-78
2023/12/02 11:24:09;;;;;;;18.77;10.10;;;;;;;1.41;97.21;101375.56;7395409;19;19971;-78